createdAt,value
2023-01-18T00:01:12.779Z,98261.88
2023-01-18T00:03:40.302Z,98255.47
2023-01-18T00:06:10.058Z,98261.31
2023-01-18T00:08:39.144Z,98269.50
2023-01-18T00:11:12.823Z,98268.59
2023-01-18T00:13:40.304Z,98262.81
2023-01-18T00:16:20.529Z,98268.78
2023-01-18T00:18:56.689Z,98276.13
2023-01-18T00:21:27.065Z,98276.88
2023-01-18T00:23:56.495Z,98276.28
2023-01-18T00:26:23.388Z,98272.69
2023-01-18T00:28:50.204Z,98266.44
2023-01-18T00:31:20.316Z,98265.19
2023-01-18T00:33:49.588Z,98262.41
2023-01-18T00:36:17.267Z,98261.63
2023-01-18T00:38:44.581Z,98255.16
2023-01-18T00:41:11.492Z,98251.34
2023-01-18T00:43:41.444Z,98249.41
2023-01-18T00:46:21.523Z,98246.75
2023-01-18T00:48:48.694Z,98245.22
2023-01-18T00:51:23.110Z,98243.88
2023-01-18T00:53:50.707Z,98248.19
2023-01-18T00:56:21.874Z,98242.03
2023-01-18T00:58:49.395Z,98243.22
2023-01-18T01:01:16.897Z,98233.47
2023-01-18T01:04:02.392Z,98239.44
2023-01-18T01:06:45.418Z,98242.78
2023-01-18T01:09:26.300Z,98233.94
2023-01-18T01:12:13.176Z,98233.81
2023-01-18T01:15:06.042Z,98227.00
2023-01-18T01:17:54.769Z,98232.75
2023-01-18T01:20:43.056Z,98233.72
2023-01-18T01:23:39.138Z,98229.34
2023-01-18T01:26:08.075Z,98232.78
2023-01-18T01:28:35.877Z,98227.22
2023-01-18T01:31:06.503Z,98245.16
2023-01-18T01:33:35.582Z,98241.81
2023-01-18T01:36:11.157Z,98250.75
2023-01-18T01:38:39.436Z,98248.94
2023-01-18T01:41:11.672Z,98242.63
2023-01-18T01:43:51.391Z,98245.16
2023-01-18T01:46:42.349Z,98237.84
2023-01-18T01:49:40.151Z,98233.22
2023-01-18T01:52:15.543Z,98234.91
2023-01-18T01:54:58.656Z,98228.91
2023-01-18T01:57:35.108Z,98239.22
2023-01-18T02:00:21.238Z,98246.19
2023-01-18T02:02:55.810Z,98248.72
2023-01-18T02:05:22.934Z,98240.66
2023-01-18T02:07:49.999Z,98243.47
2023-01-18T02:10:17.588Z,98239.78
2023-01-18T02:12:49.462Z,98246.88
2023-01-18T02:15:18.138Z,98246.06
2023-01-18T02:18:06.970Z,98254.31
2023-01-18T02:21:15.616Z,98253.34
2023-01-18T02:24:40.015Z,98254.09
2023-01-18T02:27:20.976Z,98257.13
2023-01-18T02:30:08.955Z,98256.16
2023-01-18T02:33:08.355Z,98254.56
2023-01-18T02:35:44.371Z,98264.22
2023-01-18T02:38:26.967Z,98259.28
2023-01-18T02:41:22.261Z,98265.94
2023-01-18T02:44:12.159Z,98262.63
2023-01-18T02:46:40.529Z,98268.09
2023-01-18T02:49:23.166Z,98269.91
2023-01-18T02:51:50.069Z,98263.97
2023-01-18T02:54:24.573Z,98265.66
2023-01-18T02:56:53.669Z,98271.25
2023-01-18T02:59:38.579Z,98276.81
2023-01-18T03:02:12.217Z,98273.00
2023-01-18T03:04:45.139Z,98271.00
2023-01-18T03:07:17.957Z,98271.69
2023-01-18T03:09:45.864Z,98280.34
2023-01-18T03:12:46.190Z,98273.91
2023-01-18T03:15:57.451Z,98265.59
2023-01-18T03:18:31.103Z,98266.97
2023-01-18T03:20:57.967Z,98266.09
2023-01-18T03:23:38.125Z,98276.06
2023-01-18T03:26:10.565Z,98276.06
2023-01-18T03:29:05.523Z,98277.91
2023-01-18T03:32:07.288Z,98274.03
2023-01-18T03:34:40.433Z,98280.84
2023-01-18T03:37:14.218Z,98280.34
2023-01-18T03:39:55.027Z,98273.81
2023-01-18T03:42:43.709Z,98280.44
2023-01-18T03:45:30.243Z,98276.44
2023-01-18T03:47:57.045Z,98280.28
2023-01-18T03:50:53.549Z,98285.91
2023-01-18T03:53:54.990Z,98281.28
2023-01-18T03:57:04.694Z,98280.28
2023-01-18T03:59:38.062Z,98290.78
2023-01-18T04:02:07.579Z,98286.81
2023-01-18T04:04:34.933Z,98276.69
2023-01-18T04:07:01.816Z,98277.84
2023-01-18T04:09:28.947Z,98278.38
2023-01-18T04:11:55.714Z,98272.06
2023-01-18T04:14:22.520Z,98279.06
2023-01-18T04:16:49.449Z,98270.06
2023-01-18T04:19:17.329Z,98273.75
2023-01-18T04:21:44.860Z,98271.38
2023-01-18T04:24:11.758Z,98280.53
2023-01-18T04:26:38.767Z,98287.63
2023-01-18T04:29:05.607Z,98281.66
2023-01-18T04:31:32.699Z,98283.63
2023-01-18T04:33:59.692Z,98286.13
2023-01-18T04:36:28.484Z,98296.63
2023-01-18T04:38:55.899Z,98291.16
2023-01-18T04:41:23.535Z,98291.97
2023-01-18T04:43:50.314Z,98292.66
2023-01-18T04:46:17.384Z,98295.84
2023-01-18T04:48:44.359Z,98300.84
2023-01-18T04:51:15.143Z,98302.19
2023-01-18T04:53:42.934Z,98307.72
2023-01-18T04:56:10.861Z,98314.91
2023-01-18T04:58:38.195Z,98317.63
2023-01-18T05:01:09.251Z,98319.81
2023-01-18T05:03:38.477Z,98331.50
2023-01-18T05:06:14.156Z,98325.84
2023-01-18T05:08:42.532Z,98327.41
2023-01-18T05:11:12.886Z,98323.25
2023-01-18T05:13:40.814Z,98334.06
2023-01-18T05:16:14.176Z,98334.59
2023-01-18T05:18:41.033Z,98334.78
2023-01-18T05:21:07.821Z,98339.28
2023-01-18T05:23:34.643Z,98345.28
2023-01-18T05:26:02.080Z,98344.13
2023-01-18T05:28:29.206Z,98348.28
2023-01-18T05:30:56.316Z,98349.44
2023-01-18T05:33:23.690Z,98350.94
2023-01-18T05:35:54.153Z,98348.94
2023-01-18T05:38:22.986Z,98345.47
2023-01-18T05:40:52.940Z,98341.34
2023-01-18T05:43:22.185Z,98345.00
2023-01-18T05:45:49.390Z,98337.31
2023-01-18T05:48:16.899Z,98338.81
2023-01-18T05:50:46.527Z,98327.72
2023-01-18T05:53:16.641Z,98329.66
2023-01-18T05:55:44.728Z,98318.69
2023-01-18T05:58:12.015Z,98320.03
2023-01-18T06:00:38.781Z,98326.84
2023-01-18T06:03:05.556Z,98335.16
2023-01-18T06:05:32.335Z,98328.31
2023-01-18T06:07:59.701Z,98332.28
2023-01-18T06:10:26.500Z,98341.59
2023-01-18T06:12:53.325Z,98345.56
2023-01-18T06:15:20.129Z,98355.88
2023-01-18T06:17:47.282Z,98357.19
2023-01-18T06:20:14.663Z,98358.50
2023-01-18T06:22:45.995Z,98365.66
2023-01-18T06:25:13.173Z,98374.47
2023-01-18T06:27:40.046Z,98393.47
2023-01-18T06:30:08.580Z,98396.78
2023-01-18T06:32:35.448Z,98401.78
2023-01-18T06:35:02.337Z,98411.31
2023-01-18T06:37:29.181Z,98418.78
2023-01-18T06:39:56.012Z,98416.47
2023-01-18T06:42:22.824Z,98414.81
2023-01-18T06:44:49.638Z,98412.66
2023-01-18T06:47:20.036Z,98424.75
2023-01-18T06:49:50.668Z,98430.72
2023-01-18T06:52:18.324Z,98442.28
2023-01-18T06:54:45.146Z,98437.56
2023-01-18T06:57:12.498Z,98438.19
2023-01-18T06:59:40.361Z,98435.47
2023-01-18T07:02:07.814Z,98446.75
2023-01-18T07:04:41.646Z,98456.00
2023-01-18T07:07:08.626Z,98455.50
2023-01-18T07:09:35.639Z,98453.50
2023-01-18T07:12:02.858Z,98458.22
2023-01-18T07:14:29.633Z,98455.41
2023-01-18T07:16:56.428Z,98458.41
2023-01-18T07:19:23.303Z,98460.09
2023-01-18T07:21:53.845Z,98462.38
2023-01-18T07:24:20.976Z,98475.53
2023-01-18T07:26:47.895Z,98479.19
2023-01-18T07:29:15.050Z,98471.34
2023-01-18T07:31:41.925Z,98466.78
2023-01-18T07:34:10.773Z,98467.31
2023-01-18T07:36:39.426Z,98476.78
2023-01-18T07:39:06.816Z,98484.47
2023-01-18T07:41:34.302Z,98484.47
2023-01-18T07:44:02.255Z,98490.47
2023-01-18T07:46:29.461Z,98488.44
2023-01-18T07:48:56.346Z,98499.22
2023-01-18T07:51:23.461Z,98502.41
2023-01-18T07:53:55.247Z,98504.47
2023-01-18T07:56:23.845Z,98510.59
2023-01-18T07:58:50.924Z,98506.16
2023-01-18T08:01:21.704Z,98522.63
2023-01-18T08:03:50.168Z,98533.09
2023-01-18T08:06:24.919Z,98535.47
2023-01-18T08:08:53.127Z,98533.81
2023-01-18T08:11:20.383Z,98539.97
2023-01-18T08:13:49.445Z,98534.09
2023-01-18T08:16:16.700Z,98540.06
2023-01-18T08:18:45.641Z,98534.88
2023-01-18T08:21:13.618Z,98539.28
2023-01-18T08:23:41.319Z,98531.63
2023-01-18T08:26:10.268Z,98534.56
2023-01-18T08:28:37.307Z,98527.56
2023-01-18T08:31:18.442Z,98515.28
2023-01-18T08:33:49.062Z,98532.22
2023-01-18T08:36:22.842Z,98552.94
2023-01-18T08:38:59.390Z,98557.28
2023-01-18T08:41:29.075Z,98554.63
2023-01-18T08:43:57.433Z,98557.28
2023-01-18T08:46:25.691Z,98561.31
2023-01-18T08:48:55.601Z,98567.47
2023-01-18T08:51:23.868Z,98573.50
2023-01-18T08:53:56.727Z,98576.84
2023-01-18T08:56:23.752Z,98575.16
2023-01-18T08:58:52.374Z,98584.13
2023-01-18T09:01:19.433Z,98583.53
2023-01-18T09:03:48.127Z,98575.00
2023-01-18T09:06:16.904Z,98585.88
2023-01-18T09:08:43.985Z,98591.28
2023-01-18T09:11:11.048Z,98587.03
2023-01-18T09:13:58.593Z,98599.03
2023-01-18T09:16:26.942Z,98596.44
2023-01-18T09:18:55.561Z,98595.28
2023-01-18T09:21:22.503Z,98603.91
2023-01-18T09:23:51.066Z,98617.56
2023-01-18T09:26:20.366Z,98626.94
2023-01-18T09:28:52.643Z,98639.00
2023-01-18T09:31:22.545Z,98639.78
2023-01-18T09:33:53.695Z,98642.94
2023-01-18T09:36:24.185Z,98643.00
2023-01-18T09:38:51.041Z,98646.22
2023-01-18T09:41:57.148Z,98660.94
2023-01-18T09:44:41.353Z,98657.03
2023-01-18T09:47:24.822Z,98659.09
2023-01-18T09:50:15.534Z,98665.22
2023-01-18T09:52:54.367Z,98663.09
2023-01-18T09:55:57.215Z,98681.03
2023-01-18T09:58:50.201Z,98675.56
2023-01-18T10:01:25.484Z,98683.75
2023-01-18T10:04:20.934Z,98693.59
2023-01-18T10:07:05.687Z,98702.09
2023-01-18T10:09:53.833Z,98711.81
2023-01-18T10:12:47.296Z,98709.28
2023-01-18T10:15:22.583Z,98705.97
2023-01-18T10:18:00.694Z,98716.50
2023-01-18T10:20:49.980Z,98711.47
2023-01-18T10:23:31.607Z,98726.44
2023-01-18T10:26:04.207Z,98729.47
2023-01-18T10:28:49.286Z,98732.13
2023-01-18T10:31:56.227Z,98745.59
2023-01-18T10:34:33.243Z,98739.47
2023-01-18T10:37:17.767Z,98740.78
2023-01-18T10:39:51.628Z,98750.81
2023-01-18T10:42:28.779Z,98754.84
2023-01-18T10:44:55.639Z,98747.50
2023-01-18T10:47:22.463Z,98763.84
2023-01-18T10:49:51.505Z,98757.19
2023-01-18T10:52:32.548Z,98765.84
2023-01-18T10:55:09.301Z,98777.81
2023-01-18T10:57:53.609Z,98774.44
2023-01-18T11:00:30.933Z,98778.13
2023-01-18T11:03:00.400Z,98782.06
2023-01-18T11:05:33.246Z,98782.06
2023-01-18T11:08:33.382Z,98790.75
2023-01-18T11:11:06.922Z,98790.75
2023-01-18T11:13:44.852Z,98785.75
2023-01-18T11:16:24.409Z,98781.53
2023-01-18T11:19:17.913Z,98796.41
2023-01-18T11:21:51.694Z,98803.06
2023-01-18T11:24:27.141Z,98794.84
2023-01-18T11:27:15.278Z,98801.34
2023-01-18T11:29:44.808Z,98804.47
2023-01-18T11:32:31.092Z,98803.41
2023-01-18T11:35:00.183Z,98800.28
2023-01-18T11:37:31.439Z,98806.16
2023-01-18T11:39:58.421Z,98815.03
2023-01-18T11:42:34.552Z,98813.06
2023-01-18T11:45:45.545Z,98807.94
2023-01-18T11:48:30.943Z,98810.28
2023-01-18T11:51:01.328Z,98811.50
2023-01-18T11:54:04.673Z,98822.69
2023-01-18T11:56:55.928Z,98824.03
2023-01-18T11:59:38.323Z,98825.59
2023-01-18T12:02:45.579Z,98829.16
2023-01-18T12:05:50.060Z,98830.72
2023-01-18T12:08:44.448Z,98834.75
2023-01-18T12:11:18.817Z,98835.66
2023-01-18T12:14:03.635Z,98837.50
2023-01-18T12:17:02.121Z,98839.22
2023-01-18T12:20:14.494Z,98839.41
2023-01-18T12:22:54.500Z,98834.56
2023-01-18T12:25:40.020Z,98833.59
2023-01-18T12:28:57.932Z,98832.94
2023-01-18T12:31:43.544Z,98846.34
2023-01-18T12:34:20.619Z,98844.66
2023-01-18T12:37:22.396Z,98848.84
2023-01-18T12:39:59.167Z,98856.38
2023-01-18T12:43:23.585Z,98850.56
2023-01-18T12:46:07.256Z,98850.03
2023-01-18T12:48:57.110Z,98857.09
2023-01-18T12:51:27.620Z,98864.75
2023-01-18T12:54:13.635Z,98861.41
2023-01-18T12:56:49.022Z,98874.47
2023-01-18T12:59:21.255Z,98884.19
2023-01-18T13:01:56.232Z,98873.97
2023-01-18T13:04:31.936Z,98879.84
2023-01-18T13:07:07.638Z,98877.50
2023-01-18T13:09:43.891Z,98879.16
2023-01-18T13:12:11.843Z,98885.53
2023-01-18T13:15:08.274Z,98882.03
2023-01-18T13:17:51.060Z,98884.88
2023-01-18T13:20:25.883Z,98885.22
2023-01-18T13:23:05.364Z,98883.53
2023-01-18T13:26:10.232Z,98893.22
2023-01-18T13:28:38.327Z,98888.53
2023-01-18T13:31:06.505Z,98892.91
2023-01-18T13:33:45.648Z,98898.56
2023-01-18T13:36:19.757Z,98913.97
2023-01-18T13:38:53.445Z,98917.31
2023-01-18T13:41:29.553Z,98917.31
2023-01-18T13:44:01.495Z,98916.81
2023-01-18T13:46:31.751Z,98916.16
2023-01-18T13:49:02.853Z,98921.50
2023-01-18T13:51:41.744Z,98922.69
2023-01-18T13:54:18.625Z,98924.19
2023-01-18T13:57:05.694Z,98933.53
2023-01-18T13:59:46.775Z,98930.16
2023-01-18T14:02:42.014Z,98933.34
2023-01-18T14:05:25.805Z,98929.19
2023-01-18T14:08:02.305Z,98932.38
2023-01-18T14:10:39.292Z,98937.00
2023-01-18T14:13:11.727Z,98933.00
2023-01-18T14:15:54.854Z,98928.16
2023-01-18T14:18:29.281Z,98937.00
2023-01-18T14:21:33.620Z,98947.72
2023-01-18T14:24:09.788Z,98946.06
2023-01-18T14:26:40.581Z,98949.91
2023-01-18T14:29:19.271Z,98948.72
2023-01-18T14:31:51.779Z,98950.72
2023-01-18T14:34:30.777Z,98959.53
2023-01-18T14:36:58.051Z,98968.28
2023-01-18T14:39:26.063Z,98961.75
2023-01-18T14:42:05.304Z,98965.03
2023-01-18T14:44:57.769Z,98962.03
2023-01-18T14:47:33.633Z,98978.06
2023-01-18T14:50:04.713Z,98977.38
2023-01-18T14:52:34.565Z,98984.72
2023-01-18T14:55:01.593Z,98978.69
2023-01-18T14:57:28.396Z,98977.03
2023-01-18T15:00:07.629Z,98977.66
2023-01-18T15:02:39.189Z,98988.03
2023-01-18T15:05:17.967Z,98993.69
2023-01-18T15:07:55.990Z,98995.22
2023-01-18T15:10:24.365Z,98997.88
2023-01-18T15:12:57.292Z,99006.38
2023-01-18T15:15:30.761Z,99006.84
2023-01-18T15:18:10.526Z,99009.84
2023-01-18T15:20:55.277Z,99015.34
2023-01-18T15:23:23.356Z,99021.00
2023-01-18T15:25:52.819Z,99026.66
2023-01-18T15:28:23.953Z,99025.59
2023-01-18T15:30:56.237Z,99034.84
2023-01-18T15:33:25.953Z,99034.31
2023-01-18T15:35:59.082Z,99036.28
2023-01-18T15:38:26.045Z,99038.44
2023-01-18T15:41:01.237Z,99036.94
2023-01-18T15:43:34.576Z,99041.59
2023-01-18T15:46:02.615Z,99053.13
2023-01-18T15:48:44.989Z,99052.63
2023-01-18T15:51:11.886Z,99063.03
2023-01-18T15:53:46.209Z,99071.94
2023-01-18T15:56:20.438Z,99066.25
2023-01-18T15:58:56.106Z,99060.38
2023-01-18T16:01:31.991Z,99061.78
2023-01-18T16:04:04.176Z,99060.09
2023-01-18T16:06:36.090Z,99065.91
2023-01-18T16:09:13.831Z,99061.19
2023-01-18T16:11:54.461Z,99069.69
2023-01-18T16:14:36.289Z,99084.69
2023-01-18T16:17:14.326Z,99087.16
2023-01-18T16:19:45.163Z,99088.84
2023-01-18T16:22:29.615Z,99096.53
2023-01-18T16:25:06.419Z,99094.88
2023-01-18T16:27:34.448Z,99095.19
2023-01-18T16:30:15.047Z,99110.75
2023-01-18T16:32:41.869Z,99114.94
2023-01-18T16:35:09.982Z,99119.81
2023-01-18T16:37:41.487Z,99120.66
2023-01-18T16:40:09.748Z,99120.16
2023-01-18T16:43:01.848Z,99116.25
2023-01-18T16:45:31.031Z,99136.78
2023-01-18T16:47:58.028Z,99138.22
2023-01-18T16:50:25.776Z,99138.84
2023-01-18T16:52:52.692Z,99135.25
2023-01-18T16:55:19.936Z,99143.75
2023-01-18T16:57:46.757Z,99150.53
2023-01-18T17:00:17.217Z,99151.97
2023-01-18T17:02:44.120Z,99155.09
2023-01-18T17:05:11.657Z,99164.56
2023-01-18T17:07:38.497Z,99163.47
2023-01-18T17:10:38.129Z,99172.09
2023-01-18T17:13:04.955Z,99169.84
2023-01-18T17:15:34.810Z,99174.97
2023-01-18T17:18:02.755Z,99172.59
2023-01-18T17:20:30.587Z,99180.31
2023-01-18T17:22:57.806Z,99181.25
2023-01-18T17:25:25.261Z,99183.91
2023-01-18T17:27:52.786Z,99194.16
2023-01-18T17:30:22.382Z,99193.75
2023-01-18T17:32:50.605Z,99200.38
2023-01-18T17:35:21.879Z,99204.31
2023-01-18T17:37:54.390Z,99210.63
2023-01-18T17:40:38.701Z,99218.25
2023-01-18T17:43:10.783Z,99217.53
2023-01-18T17:45:38.310Z,99216.44
2023-01-18T17:48:05.785Z,99217.56
2023-01-18T17:50:32.582Z,99226.97
2023-01-18T17:52:59.618Z,99238.63
2023-01-18T17:55:34.283Z,99238.09
2023-01-18T17:58:02.479Z,99241.16
2023-01-18T18:00:29.448Z,99251.00
2023-01-18T18:02:57.612Z,99258.44
2023-01-18T18:05:24.909Z,99247.06
2023-01-18T18:07:52.145Z,99253.22
2023-01-18T18:10:19.287Z,99268.13
2023-01-18T18:12:46.589Z,99267.56
2023-01-18T18:15:13.877Z,99270.38
2023-01-18T18:17:40.810Z,99284.38
2023-01-18T18:20:10.913Z,99286.34
2023-01-18T18:22:38.585Z,99290.72
2023-01-18T18:25:07.350Z,99296.44
2023-01-18T18:27:45.506Z,99294.47
2023-01-18T18:30:13.538Z,99306.84
2023-01-18T18:32:40.417Z,99313.31
2023-01-18T18:35:23.096Z,99326.19
2023-01-18T18:37:51.148Z,99334.91
2023-01-18T18:40:19.074Z,99328.16
2023-01-18T18:42:56.489Z,99329.28
2023-01-18T18:45:29.024Z,99332.78
2023-01-18T18:47:55.776Z,99339.50
2023-01-18T18:50:22.628Z,99335.16
2023-01-18T18:52:49.475Z,99340.75
2023-01-18T18:55:16.363Z,99333.16
2023-01-18T18:57:43.312Z,99347.22
2023-01-18T19:00:11.162Z,99340.19
2023-01-18T19:02:38.277Z,99334.97
2023-01-18T19:05:06.591Z,99334.16
2023-01-18T19:07:37.377Z,99356.31
2023-01-18T19:10:06.066Z,99355.59
2023-01-18T19:12:33.223Z,99356.16
2023-01-18T19:15:00.230Z,99356.03
2023-01-18T19:17:30.860Z,99353.50
2023-01-18T19:19:58.947Z,99365.44
2023-01-18T19:22:26.334Z,99366.84
2023-01-18T19:24:53.151Z,99367.69
2023-01-18T19:27:21.433Z,99376.13
2023-01-18T19:29:48.589Z,99365.44
2023-01-18T19:32:15.663Z,99369.78
2023-01-18T19:34:42.687Z,99374.72
2023-01-18T19:37:09.571Z,99365.03
2023-01-18T19:39:36.545Z,99369.41
2023-01-18T19:42:03.487Z,99365.72
2023-01-18T19:44:30.336Z,99378.09
2023-01-18T19:46:57.474Z,99376.41
2023-01-18T19:49:26.590Z,99383.44
2023-01-18T19:51:54.885Z,99384.41
2023-01-18T19:54:22.350Z,99383.00
2023-01-18T19:56:49.706Z,99393.00
2023-01-18T19:59:16.651Z,99389.91
2023-01-18T20:01:44.785Z,99395.66
2023-01-18T20:04:13.409Z,99407.88
2023-01-18T20:06:43.497Z,99410.13
2023-01-18T20:09:19.541Z,99411.38
2023-01-18T20:11:49.163Z,99425.03
2023-01-18T20:14:16.116Z,99427.81
2023-01-18T20:16:45.633Z,99424.16
2023-01-18T20:19:14.499Z,99424.59
2023-01-18T20:21:41.338Z,99418.97
2023-01-18T20:24:09.409Z,99421.66
2023-01-18T20:26:39.612Z,99426.97
2023-01-18T20:29:08.731Z,99429.09
2023-01-18T20:31:38.597Z,99439.75
2023-01-18T20:34:07.470Z,99438.75
2023-01-18T20:36:37.705Z,99442.56
2023-01-18T20:39:06.076Z,99442.69
2023-01-18T20:41:32.893Z,99451.25
2023-01-18T20:43:59.796Z,99448.72
2023-01-18T20:46:26.910Z,99454.75
2023-01-18T20:48:53.692Z,99449.16
2023-01-18T20:51:20.678Z,99454.63
2023-01-18T20:53:47.648Z,99457.28
2023-01-18T20:56:28.286Z,99457.56
2023-01-18T20:58:55.887Z,99462.88
2023-01-18T21:01:23.013Z,99461.47
2023-01-18T21:03:55.271Z,99463.97
2023-01-18T21:06:22.146Z,99473.22
2023-01-18T21:08:53.014Z,99473.38
2023-01-18T21:11:25.425Z,99478.13
2023-01-18T21:13:54.848Z,99484.97
2023-01-18T21:16:22.182Z,99491.25
2023-01-18T21:18:49.799Z,99484.25
2023-01-18T21:21:16.658Z,99490.84
2023-01-18T21:23:43.414Z,99490.41
2023-01-18T21:26:12.165Z,99495.28
2023-01-18T21:28:39.773Z,99496.53
2023-01-18T21:31:07.101Z,99502.97
2023-01-18T21:33:34.480Z,99501.41
2023-01-18T21:36:07.707Z,99507.72
2023-01-18T21:38:35.709Z,99499.97
2023-01-18T21:41:21.385Z,99498.03
2023-01-18T21:44:07.157Z,99517.38
2023-01-18T21:46:34.395Z,99503.47
2023-01-18T21:49:06.765Z,99511.75
2023-01-18T21:51:53.372Z,99519.03
2023-01-18T21:54:22.282Z,99520.41
2023-01-18T21:56:49.292Z,99520.78
2023-01-18T21:59:16.061Z,99516.69
2023-01-18T22:01:45.610Z,99519.50
2023-01-18T22:04:33.733Z,99517.47
2023-01-18T22:07:01.141Z,99524.75
2023-01-18T22:09:29.982Z,99518.84
2023-01-18T22:11:57.654Z,99522.03
2023-01-18T22:14:26.033Z,99523.00
2023-01-18T22:16:53.597Z,99533.34
2023-01-18T22:19:20.569Z,99530.78
2023-01-18T22:21:48.666Z,99527.56
2023-01-18T22:24:17.199Z,99530.59
2023-01-18T22:26:45.374Z,99520.81
2023-01-18T22:29:12.770Z,99524.81
2023-01-18T22:31:39.902Z,99526.66
2023-01-18T22:34:06.847Z,99530.38
2023-01-18T22:36:34.473Z,99528.97
2023-01-18T22:39:01.289Z,99524.63
2023-01-18T22:41:29.978Z,99517.13
2023-01-18T22:43:57.418Z,99530.72
2023-01-18T22:46:25.020Z,99536.38
2023-01-18T22:48:52.164Z,99540.56
2023-01-18T22:51:22.769Z,99539.59
2023-01-18T22:53:50.625Z,99551.78
2023-01-18T22:56:23.722Z,99553.72
2023-01-18T22:58:51.987Z,99560.28
2023-01-18T23:01:25.522Z,99566.69
2023-01-18T23:03:56.130Z,99576.00
2023-01-18T23:06:23.354Z,99577.97
2023-01-18T23:08:50.613Z,99590.75
2023-01-18T23:11:22.299Z,99580.03
2023-01-18T23:14:14.094Z,99589.09
2023-01-18T23:17:00.420Z,99593.22
2023-01-18T23:19:29.718Z,99589.69
2023-01-18T23:21:57.960Z,99591.88
2023-01-18T23:24:25.963Z,99588.63
2023-01-18T23:26:52.960Z,99592.50
2023-01-18T23:29:20.558Z,99583.78
2023-01-18T23:31:47.828Z,99593.81
2023-01-18T23:34:14.659Z,99596.59
2023-01-18T23:36:41.463Z,99596.81
2023-01-18T23:39:26.874Z,99592.38
2023-01-18T23:42:12.242Z,99595.16
2023-01-18T23:44:57.534Z,99597.19
2023-01-18T23:47:42.920Z,99600.06
2023-01-18T23:50:29.468Z,99602.84
2023-01-18T23:53:14.869Z,99599.47
2023-01-18T23:55:41.664Z,99598.03
2023-01-18T23:58:08.564Z,99598.03
